^^
Meteo Knjazevac Station Historical Data
Daily Summary for November 22, 2021 Units:  English    Metric   Both
Daily Weekly Monthly Yearly Custom
  High: Low: Average:
Temperature: 62.6 °F 36.7 °F 49.7 °F
Dew Point: 51.1 °F 34.3 °F 44.8 °F
Humidity: 99% 65% 84%
Wind Speed: 8mph 0mph 2.1mph
Wind Gust: 13mph - -
Wind- - SSW
Pressure: 30.08 in 29.98 in -
Precipitation: 0.08 in    
Historical Graphs
 
 
Tabular Data for November 22, 2021
Time Temperature Dew Point Pressure Wind Wind Speed Wind Gust Humidity Rainfall Rate (Hourly) solar Conditions
00:00 42.1 °F 37.6 °F 30.00 in NNE 1 mph 3 mph 84% 0.00 in 0 W/m2
00:10 41.5 °F 37.1 °F 30.00 in North 1 mph 2 mph 84% 0.00 in 0 W/m2
00:20 41.2 °F 36.8 °F 30.00 in Calm   3 mph 84% 0.00 in 0 W/m2
00:30 40.5 °F 36.1 °F 30.00 in WNW 1 mph 3 mph 84% 0.00 in 0 W/m2
00:40 39.9 °F 35.8 °F 30.00 in WNW 1 mph 4 mph 85% 0.00 in 0 W/m2
00:50 39.9 °F 36.4 °F 30.00 in NNW 1 mph 3 mph 87% 0.00 in 0 W/m2
01:00 39.7 °F 35.9 °F 30.00 in WNW 2 mph 3 mph 86% 0.00 in 0 W/m2
01:10 39.2 °F 35.7 °F 30.00 in West 2 mph 5 mph 87% 0.00 in 0 W/m2
01:20 39.2 °F 35.9 °F 30.00 in WNW 1 mph 5 mph 88% 0.00 in 0 W/m2
01:30 39 °F 35.8 °F 30.00 in NNW 1 mph 3 mph 88% 0.00 in 0 W/m2
01:40 38.8 °F 35.6 °F 30.00 in Calm   3 mph 88% 0.00 in 0 W/m2
01:50 38.7 °F 35.7 °F 30.01 in Calm   3 mph 89% 0.00 in 0 W/m2
02:00 38.3 °F 35.1 °F 30.01 in North 1 mph 3 mph 88% 0.00 in 0 W/m2
02:10 37.8 °F 34.9 °F 30.01 in WNW 3 mph 4 mph 89% 0.00 in 0 W/m2
02:20 37.6 °F 34.9 °F 30.01 in NW 1 mph 3 mph 90% 0.00 in 0 W/m2
02:30 37.6 °F 34.9 °F 30.01 in NW 2 mph 3 mph 90% 0.00 in 0 W/m2
02:40 37.6 °F 34.9 °F 30.01 in NNW 1 mph 5 mph 90% 0.00 in 0 W/m2
02:50 37.4 °F 34.7 °F 30.00 in Calm   4 mph 90% 0.00 in 0 W/m2
03:00 37.2 °F 34.6 °F 30.00 in WNW 1 mph 3 mph 90% 0.00 in 0 W/m2
03:10 37.2 °F 35.1 °F 30.00 in West 2 mph 5 mph 92% 0.00 in 0 W/m2
03:20 37.6 °F 35.7 °F 30.00 in WNW 2 mph 3 mph 93% 0.00 in 0 W/m2
03:30 37.7 °F 35.9 °F 30.00 in West 2 mph 4 mph 93% 0.00 in 0 W/m2
03:40 37.9 °F 36.1 °F 30.00 in West 2 mph 4 mph 93% 0.00 in 0 W/m2
03:50 37.9 °F 36.1 °F 30.00 in West 2 mph 4 mph 93% 0.00 in 0 W/m2
04:00 38.3 °F 36.5 °F 30.00 in West 2 mph 4 mph 93% 0.00 in 0 W/m2
04:10 38.3 °F 35.9 °F 30.00 in Calm   2 mph 91% 0.00 in 0 W/m2
04:20 38.3 °F 36.2 °F 30.00 in NNE 2 mph 5 mph 92% 0.00 in 0 W/m2
04:30 38.3 °F 35.9 °F 30.00 in Calm   3 mph 91% 0.00 in 0 W/m2
04:40 38.3 °F 36.5 °F 30.00 in Calm   2 mph 93% 0.00 in 0 W/m2
04:50 38.8 °F 37.3 °F 30.00 in NNE 2 mph 4 mph 94% 0.00 in 0 W/m2
05:00 39 °F 37.2 °F 30.01 in NNE 1 mph 3 mph 93% 0.00 in 0 W/m2
05:10 39 °F 37.2 °F 30.01 in Calm   3 mph 93% 0.00 in 0 W/m2
05:20 39.1 °F 37.3 °F 30.01 in NNE 2 mph 4 mph 93% 0.00 in 0 W/m2
05:30 38.3 °F 35.6 °F 30.01 in NNW 2 mph 4 mph 90% 0.00 in 0 W/m2
05:40 37.9 °F 35.3 °F 30.01 in North 1 mph 5 mph 90% 0.00 in 0 W/m2
05:50 37.8 °F 35.4 °F 30.01 in North 2 mph 3 mph 91% 0.00 in 0 W/m2
06:00 37.8 °F 35.9 °F 30.01 in NNE 1 mph 4 mph 93% 0.00 in 0 W/m2
06:10 37.7 °F 35.9 °F 30.01 in Calm   2 mph 93% 0.00 in 0 W/m2
06:20 37.8 °F 35.6 °F 30.01 in NW 1 mph 2 mph 92% 0.00 in 0 W/m2
06:30 37.4 °F 35.1 °F 30.01 in NW 1 mph 2 mph 91% 0.00 in 0 W/m2
06:40 37 °F 34.7 °F 30.02 in WNW 1 mph 3 mph 91% 0.00 in 7 W/m2
06:50 36.7 °F 34.3 °F 30.02 in Calm   3 mph 91% 0.00 in 9 W/m2
07:00 37 °F 35.4 °F 30.02 in Calm   4 mph 94% 0.00 in 25 W/m2
07:10 37.2 °F 35.7 °F 30.02 in NW 1 mph 3 mph 94% 0.00 in 41 W/m2
07:20 37.4 °F 36.1 °F 30.02 in Calm   3 mph 95% 0.00 in 56 W/m2
07:30 38.6 °F 37.6 °F 30.02 in SSE 1 mph 4 mph 96% 0.00 in 77 W/m2
07:40 39.5 °F 38.2 °F 30.02 in NW 1 mph 3 mph 95% 0.00 in 100 W/m2
07:50 40.8 °F 39.5 °F 30.02 in West 2 mph 4 mph 95% 0.00 in 122 W/m2
08:00 42 °F 40.2 °F 30.02 in West 1 mph 3 mph 93% 0.00 in 142 W/m2
08:10 43.3 °F 41.4 °F 30.02 in Calm   2 mph 93% 0.00 in 158 W/m2
08:20 44.6 °F 42.1 °F 30.02 in Calm   2 mph 91% 0.00 in 138 W/m2
08:30 45.3 °F 42.2 °F 30.02 in Calm   2 mph 89% 0.00 in 163 W/m2
08:40 46.4 °F 43.3 °F 30.02 in NNW 1 mph 3 mph 89% 0.00 in 224 W/m2
08:50 47.6 °F 43.6 °F 30.02 in SE 2 mph 5 mph 86% 0.00 in 226 W/m2
09:00 49.2 °F 44.6 °F 30.02 in SE 1 mph 9 mph 84% 0.00 in 261 W/m2
09:10 50.5 °F 45.5 °F 30.02 in East 3 mph 6 mph 83% 0.00 in 278 W/m2
09:20 51.9 °F 46 °F 30.02 in ENE 2 mph 6 mph 80% 0.00 in 294 W/m2
09:30 53.2 °F 46.5 °F 30.02 in NNE 2 mph 5 mph 78% 0.00 in 229 W/m2
09:40 54.1 °F 47.1 °F 30.01 in NNE 2 mph 4 mph 77% 0.00 in 227 W/m2
09:50 54.8 °F 47 °F 30.01 in NNE 5 mph 6 mph 75% 0.00 in 202 W/m2
10:00 55.4 °F 47.6 °F 30.01 in NE 2 mph 6 mph 75% 0.00 in 233 W/m2
10:10 55.9 °F 47.8 °F 30.01 in NE 1 mph 3 mph 74% 0.00 in 216 W/m2
10:20 56.6 °F 48.4 °F 30.01 in NNE 1 mph 3 mph 74% 0.00 in 217 W/m2
10:30 57.2 °F 49 °F 30.01 in Calm   1 mph 74% 0.00 in 193 W/m2
10:40 57.7 °F 49.1 °F 30.00 in SW 2 mph 3 mph 73% 0.00 in 231 W/m2
10:50 58.3 °F 49.7 °F 30.00 in WSW 1 mph 6 mph 73% 0.00 in 210 W/m2
11:00 58.8 °F 49.8 °F 30.00 in SW 3 mph 5 mph 72% 0.00 in 242 W/m2
11:10 59.5 °F 49.7 °F 30.00 in SW 5 mph 6 mph 70% 0.00 in 276 W/m2
11:20 60.1 °F 49.9 °F 30.00 in SW 6 mph 8 mph 69% 0.00 in 328 W/m2
11:30 60.6 °F 50 °F 30.00 in WSW 6 mph 9 mph 68% 0.00 in 259 W/m2
11:40 60.6 °F 50 °F 30.00 in SW 8 mph 11 mph 68% 0.00 in 218 W/m2
11:50 60.4 °F 49.8 °F 30.00 in SW 7 mph 13 mph 68% 0.00 in 213 W/m2
12:00 60.3 °F 49.7 °F 30.00 in SW 8 mph 13 mph 68% 0.00 in 215 W/m2
12:10 60.3 °F 49.7 °F 30.00 in SW 7 mph 13 mph 68% 0.00 in 200 W/m2
12:20 60.3 °F 49.7 °F 30.00 in SW 7 mph 12 mph 68% 0.00 in 163 W/m2
12:30 60.3 °F 49.7 °F 29.99 in SW 5 mph 9 mph 68% 0.00 in 241 W/m2
12:40 60.8 °F 50.2 °F 29.99 in WSW 5 mph 9 mph 68% 0.00 in 198 W/m2
12:50 61 °F 49.9 °F 29.99 in WSW 6 mph 9 mph 67% 0.00 in 165 W/m2
13:00 61 °F 50.3 °F 29.99 in WSW 5 mph 7 mph 68% 0.00 in 178 W/m2
13:10 61.2 °F 50.5 °F 29.99 in WSW 3 mph 7 mph 68% 0.00 in 168 W/m2
13:20 61.5 °F 50.8 °F 29.99 in WSW 5 mph 8 mph 68% 0.00 in 172 W/m2
13:30 61.7 °F 51 °F 29.99 in SW 3 mph 7 mph 68% 0.00 in 187 W/m2
13:40 61.9 °F 50.8 °F 29.99 in SW 3 mph 6 mph 67% 0.00 in 194 W/m2
13:50 62.2 °F 51.1 °F 29.98 in SW 3 mph 6 mph 67% 0.00 in 223 W/m2
14:00 62.4 °F 50.5 °F 29.98 in WSW 3 mph 7 mph 65% 0.00 in 162 W/m2
14:10 62.6 °F 50.7 °F 29.98 in WSW 5 mph 8 mph 65% 0.00 in 139 W/m2
14:20 62.4 °F 50.5 °F 29.98 in WSW 5 mph 8 mph 65% 0.00 in 108 W/m2
14:30 62.2 °F 50.3 °F 29.99 in SW 5 mph 8 mph 65% 0.00 in 96 W/m2
14:40 61.9 °F 50 °F 29.98 in SW 3 mph 7 mph 65% 0.00 in 80 W/m2
14:50 61.7 °F 49.8 °F 29.99 in SW 6 mph 8 mph 65% 0.00 in 67 W/m2
15:00 61.5 °F 50.5 °F 29.99 in SW 5 mph 8 mph 67% 0.00 in 64 W/m2
15:10 61.3 °F 50.3 °F 29.99 in SW 5 mph 7 mph 67% 0.00 in 46 W/m2
15:20 61.2 °F 50.1 °F 29.99 in SW 5 mph 7 mph 67% 0.00 in 26 W/m2
15:30 60.8 °F 49.8 °F 29.99 in SW 5 mph 7 mph 67% 0.00 in 14 W/m2
15:40 60.6 °F 49.6 °F 29.99 in SW 6 mph 9 mph 67% 0.00 in 7 W/m2
15:50 60.4 °F 49.4 °F 29.99 in SW 5 mph 8 mph 67% 0.00 in 2 W/m2
16:00 60.1 °F 49.1 °F 29.99 in SW 6 mph 8 mph 67% 0.00 in 1 W/m2
16:10 59.6 °F 49.4 °F 30.00 in SW 5 mph 12 mph 69% 0.00 in 0 W/m2
16:20 59 °F 50.4 °F 30.00 in SSW 3 mph 7 mph 73% 0.00 in 0 W/m2
16:30 58.3 °F 51.1 °F 30.00 in South 2 mph 5 mph 77% 0.00 in 0 W/m2
16:40 57.6 °F 50.8 °F 30.00 in South 3 mph 7 mph 78% 0.00 in 0 W/m2
16:50 57 °F 50.2 °F 30.00 in SSW 3 mph 6 mph 78% 0.00 in 0 W/m2
17:00 56.8 °F 49.7 °F 30.00 in SW 5 mph 7 mph 77% 0.00 in 0 W/m2
17:10 56.5 °F 49.4 °F 30.01 in SW 3 mph 6 mph 77% 0.00 in 0 W/m2
17:20 56.5 °F 49.4 °F 30.01 in SSW 2 mph 4 mph 77% 0.00 in 0 W/m2
17:30 56.5 °F 49.4 °F 30.01 in SSW 2 mph 5 mph 77% 0.00 in 0 W/m2
17:40 56.3 °F 49.5 °F 30.01 in Calm   3 mph 78% 0.00 in 0 W/m2
17:50 55.8 °F 49.7 °F 30.02 in WNW 2 mph 4 mph 80% 0.00 in 0 W/m2
18:00 55.6 °F 49.8 °F 30.02 in WSW 2 mph 5 mph 81% 0.00 in 0 W/m2
18:10 54.9 °F 50.4 °F 30.03 in West 2 mph 4 mph 85% 0.01 in 0 W/m2
18:20 54.5 °F 51 °F 30.03 in WSW 2 mph 5 mph 88% 0.01 in 0 W/m2
18:30 54.1 °F 50.7 °F 30.03 in Calm   4 mph 88% 0.01 in 0 W/m2
18:40 53.8 °F 50.6 °F 30.04 in WNW 1 mph 2 mph 89% 0.01 in 0 W/m2
18:50 53.4 °F 50.6 °F 30.04 in West 1 mph 5 mph 90% 0.01 in 0 W/m2
19:00 53.2 °F 50.4 °F 30.04 in SW 2 mph 3 mph 90% 0.00 in 0 W/m2
19:10 52.9 °F 50.3 °F 30.04 in West 1 mph 2 mph 91% 0.00 in 0 W/m2
19:20 52.7 °F 50.1 °F 30.04 in West 1 mph 3 mph 91% 0.00 in 0 W/m2
19:30 52.3 °F 50.4 °F 30.04 in SW 1 mph 5 mph 93% 0.00 in 0 W/m2
19:50 52 °F 50.3 °F 30.04 in NNE 1 mph 4 mph 94% 0.00 in 0 W/m2
20:00 51.6 °F 50.2 °F 30.05 in Calm   3 mph 95% 0.00 in 0 W/m2
20:10 51.6 °F 50.2 °F 30.05 in SSE 1 mph 3 mph 95% 0.00 in 0 W/m2
20:20 51.4 °F 50.3 °F 30.05 in ESE 1 mph 3 mph 96% 0.01 in 0 W/m2
20:30 51.4 °F 50.3 °F 30.05 in Calm   2 mph 96% 0.00 in 0 W/m2
20:40 51.3 °F 50.2 °F 30.06 in NNE 2 mph 3 mph 96% 0.00 in 0 W/m2
20:50 51.3 °F 50.2 °F 30.06 in Calm   6 mph 96% 0.00 in 0 W/m2
21:00 51.3 °F 50.7 °F 30.06 in NE 1 mph 5 mph 98% 0.00 in 0 W/m2
21:10 51.1 °F 50.5 °F 30.06 in Calm   2 mph 98% 0.00 in 0 W/m2
21:20 51.1 °F 50.5 °F 30.06 in Calm   2 mph 98% 0.00 in 0 W/m2
21:30 51.1 °F 50.5 °F 30.06 in NE 1 mph 2 mph 98% 0.00 in 0 W/m2
21:40 51.1 °F 50.5 °F 30.06 in ENE 1 mph 4 mph 98% 0.00 in 0 W/m2
21:50 51.1 °F 50.5 °F 30.06 in ENE 3 mph 5 mph 98% 0.00 in 0 W/m2
22:00 51.1 °F 50.5 °F 30.06 in Calm   4 mph 98% 0.00 in 0 W/m2
22:10 50.9 °F 50.4 °F 30.06 in Calm   2 mph 98% 0.00 in 0 W/m2
22:20 50.7 °F 50.2 °F 30.06 in NW 2 mph 3 mph 98% 0.00 in 0 W/m2
22:30 50.5 °F 50.3 °F 30.07 in NW 1 mph 2 mph 99% 0.00 in 0 W/m2
22:40 50.5 °F 50.3 °F 30.07 in West 1 mph 3 mph 99% 0.00 in 0 W/m2
22:50 50.5 °F 50.3 °F 30.07 in WNW 1 mph 2 mph 99% 0.00 in 0 W/m2
23:00 50.4 °F 50.1 °F 30.07 in Calm   2 mph 99% 0.00 in 0 W/m2
23:10 50.3 °F 50.1 °F 30.07 in Calm   2 mph 99% 0.00 in 0 W/m2
23:20 50.2 °F 49.9 °F 30.08 in Calm   1 mph 99% 0.00 in 0 W/m2
23:30 50.2 °F 49.9 °F 30.08 in Calm   1 mph 99% 0.00 in 0 W/m2
23:40 50.2 °F 49.9 °F 30.08 in Calm     99% 0.00 in 0 W/m2
23:50 50.2 °F 49.9 °F 30.08 in Calm     99% 0.00 in 0 W/m2
Knjazevac, Serbia
Compliments of Weather Underground - 2 mb